createdAt,value
2023-05-16T00:01:07.349Z,6.77
2023-05-16T00:06:02.546Z,6.37
2023-05-16T00:10:56.024Z,6.97
2023-05-16T00:15:51.971Z,6.57
2023-05-16T00:20:45.281Z,7.47
2023-05-16T00:25:38.613Z,6.27
2023-05-16T00:30:31.900Z,7.27
2023-05-16T00:35:27.044Z,6.33
2023-05-16T00:40:21.481Z,7.60
2023-05-16T00:45:14.809Z,6.80
2023-05-16T00:50:09.336Z,7.80
2023-05-16T00:55:04.570Z,6.27
2023-05-16T00:59:58.159Z,7.57
2023-05-16T01:04:52.111Z,7.47
2023-05-16T01:09:45.471Z,6.23
2023-05-16T01:14:51.129Z,5.90
2023-05-16T01:20:03.658Z,6.37
2023-05-16T01:25:12.849Z,6.87
2023-05-16T01:30:17.303Z,6.20
2023-05-16T01:35:18.046Z,6.33
2023-05-16T01:40:19.965Z,6.93
2023-05-16T01:45:25.227Z,8.30
2023-05-16T01:50:24.285Z,10.30
2023-05-16T01:55:40.416Z,6.27
2023-05-16T02:00:35.497Z,7.47
2023-05-16T02:05:29.085Z,5.80
2023-05-16T02:10:22.796Z,5.80
2023-05-16T02:15:16.258Z,7.00
2023-05-16T02:20:13.212Z,6.30
2023-05-16T02:25:08.200Z,6.63
2023-05-16T02:30:01.536Z,6.70
2023-05-16T02:34:54.920Z,6.20
2023-05-16T02:39:49.648Z,6.43
2023-05-16T02:44:43.029Z,8.70
2023-05-16T02:49:36.316Z,6.40
2023-05-16T02:54:29.573Z,6.00
2023-05-16T02:59:24.241Z,5.93
2023-05-16T03:04:17.602Z,5.80
2023-05-16T03:09:11.126Z,5.40
2023-05-16T03:14:04.540Z,5.80
2023-05-16T03:18:59.364Z,5.07
2023-05-16T03:23:52.712Z,4.83
2023-05-16T03:28:45.994Z,4.50
2023-05-16T03:33:39.309Z,4.80
2023-05-16T03:38:34.082Z,4.67
2023-05-16T03:43:27.359Z,5.90
2023-05-16T03:48:20.842Z,4.70
2023-05-16T03:53:14.145Z,4.97
2023-05-16T03:58:08.737Z,4.77
2023-05-16T04:03:02.100Z,4.97
2023-05-16T04:07:55.431Z,6.10
2023-05-16T04:12:48.898Z,6.13
2023-05-16T04:17:43.589Z,5.43
2023-05-16T04:22:36.887Z,8.23
2023-05-16T04:27:30.746Z,6.03
2023-05-16T04:32:24.211Z,6.20
2023-05-16T04:37:18.960Z,6.47
2023-05-16T04:42:12.270Z,7.87
2023-05-16T04:47:06.030Z,6.63
2023-05-16T04:51:59.422Z,6.47
2023-05-16T04:56:54.153Z,5.50
2023-05-16T05:01:47.461Z,4.93
2023-05-16T05:06:41.267Z,5.93
2023-05-16T05:11:34.625Z,5.80
2023-05-16T05:16:29.342Z,5.87
2023-05-16T05:21:25.254Z,5.07
2023-05-16T05:26:19.029Z,6.27
2023-05-16T05:31:12.553Z,7.23
2023-05-16T05:36:08.427Z,8.63
2023-05-16T05:41:01.697Z,11.40
2023-05-16T05:45:55.115Z,15.70
2023-05-16T05:50:48.592Z,12.63
2023-05-16T05:55:43.233Z,15.23
2023-05-16T06:00:36.591Z,15.47
2023-05-16T06:05:30.194Z,16.80
2023-05-16T06:10:23.909Z,17.60
2023-05-16T06:15:18.924Z,17.50
2023-05-16T06:20:13.464Z,24.83
2023-05-16T06:25:07.755Z,23.73
2023-05-16T06:30:01.088Z,25.13
2023-05-16T06:34:55.954Z,29.37
2023-05-16T06:39:49.266Z,26.97
2023-05-16T06:44:42.613Z,27.90
2023-05-16T06:49:36.032Z,22.63
2023-05-16T06:54:30.821Z,27.17
2023-05-16T06:59:24.868Z,27.13
2023-05-16T07:04:18.876Z,29.20
2023-05-16T07:09:12.337Z,27.53
2023-05-16T07:14:07.014Z,24.83
2023-05-16T07:19:00.414Z,25.33
2023-05-16T07:23:53.972Z,23.70
2023-05-16T07:28:47.385Z,22.60
2023-05-16T07:33:42.098Z,23.13
2023-05-16T07:38:35.379Z,21.67
2023-05-16T07:43:30.251Z,22.27
2023-05-16T07:48:23.682Z,20.13
2023-05-16T07:53:18.510Z,22.97
2023-05-16T07:58:11.923Z,19.97
2023-05-16T08:03:06.732Z,20.43
2023-05-16T08:08:00.174Z,21.73
2023-05-16T08:12:54.896Z,19.77
2023-05-16T08:17:48.322Z,20.97
2023-05-16T08:22:41.629Z,19.57
2023-05-16T08:27:34.985Z,20.47
2023-05-16T08:32:29.745Z,16.67
2023-05-16T08:37:23.148Z,18.03
2023-05-16T08:42:16.897Z,15.73
2023-05-16T08:47:18.439Z,17.07
2023-05-16T08:52:15.532Z,18.40
2023-05-16T08:57:10.817Z,14.23
2023-05-16T09:02:04.675Z,15.03
2023-05-16T09:06:58.126Z,15.27
2023-05-16T09:11:52.942Z,14.13
2023-05-16T09:17:04.025Z,16.73
2023-05-16T09:21:57.928Z,17.60
2023-05-16T09:26:53.204Z,18.77
2023-05-16T09:31:46.713Z,18.63
2023-05-16T09:36:42.924Z,20.50
2023-05-16T09:41:37.367Z,21.83
2023-05-16T09:46:34.831Z,21.43
2023-05-16T09:51:28.704Z,26.03
2023-05-16T09:56:22.572Z,25.27
2023-05-16T10:01:15.927Z,28.10
2023-05-16T10:06:13.377Z,29.40
2023-05-16T10:11:07.969Z,33.53
2023-05-16T10:16:08.357Z,30.37
2023-05-16T10:21:10.349Z,29.77
2023-05-16T10:26:07.348Z,31.13
2023-05-16T10:31:04.374Z,31.33
2023-05-16T10:35:58.812Z,34.27
2023-05-16T10:40:52.785Z,35.07
2023-05-16T10:45:57.440Z,34.37
2023-05-16T10:50:51.462Z,34.83
2023-05-16T10:56:06.585Z,39.10
2023-05-16T11:01:23.482Z,35.63
2023-05-16T11:06:24.824Z,34.57
2023-05-16T11:11:41.879Z,30.37
2023-05-16T11:16:37.764Z,35.37
2023-05-16T11:22:11.796Z,34.83
2023-05-16T11:27:06.952Z,28.53
2023-05-16T11:32:03.450Z,29.97
2023-05-16T11:36:57.816Z,30.93
2023-05-16T11:41:51.392Z,24.33
2023-05-16T11:46:44.775Z,28.90
2023-05-16T11:51:41.985Z,28.20
2023-05-16T11:56:37.953Z,26.30
2023-05-16T12:01:35.852Z,24.47
2023-05-16T12:06:31.242Z,19.87
2023-05-16T12:11:26.564Z,21.20
2023-05-16T12:16:20.594Z,15.43
2023-05-16T12:21:14.872Z,16.50
2023-05-16T12:26:08.589Z,17.73
2023-05-16T12:31:03.311Z,16.97
2023-05-16T12:35:57.079Z,16.90
2023-05-16T12:40:51.501Z,13.87
2023-05-16T12:45:52.798Z,15.00
2023-05-16T12:50:48.950Z,12.63
2023-05-16T12:55:43.461Z,14.17
2023-05-16T13:00:37.682Z,14.23
2023-05-16T13:05:31.089Z,13.50
2023-05-16T13:10:26.212Z,12.93
2023-05-16T13:15:19.798Z,14.60
2023-05-16T13:20:15.000Z,13.33
2023-05-16T13:25:10.582Z,14.17
2023-05-16T13:30:06.329Z,13.67
2023-05-16T13:34:59.622Z,12.23
2023-05-16T13:39:54.701Z,13.23
2023-05-16T13:44:48.128Z,13.27
2023-05-16T13:49:42.910Z,13.57
2023-05-16T13:54:36.320Z,12.80
2023-05-16T13:59:48.770Z,13.03
2023-05-16T14:04:44.550Z,14.67
2023-05-16T14:09:39.456Z,14.93
2023-05-16T14:14:33.064Z,14.27
2023-05-16T14:19:26.556Z,16.40
2023-05-16T14:24:21.375Z,15.50
2023-05-16T14:29:14.733Z,15.00
2023-05-16T14:34:08.050Z,14.70
2023-05-16T14:39:01.483Z,14.43
2023-05-16T14:43:57.215Z,15.27
2023-05-16T14:48:51.113Z,14.37
2023-05-16T14:53:46.788Z,17.50
2023-05-16T14:58:40.701Z,15.20
2023-05-16T15:03:46.741Z,16.10
2023-05-16T15:08:44.478Z,18.37
2023-05-16T15:13:37.826Z,15.17
2023-05-16T15:18:31.134Z,11.70
2023-05-16T15:23:26.192Z,9.30
2023-05-16T15:28:22.392Z,8.47
2023-05-16T15:33:16.084Z,7.43
2023-05-16T15:38:09.659Z,5.20
2023-05-16T15:43:04.672Z,5.40
2023-05-16T15:47:58.053Z,4.67
2023-05-16T15:52:51.504Z,5.57
2023-05-16T15:57:44.863Z,4.87
2023-05-16T16:02:40.269Z,5.10
2023-05-16T16:07:33.702Z,4.80
2023-05-16T16:12:27.044Z,5.27
2023-05-16T16:17:20.487Z,7.43
2023-05-16T16:22:16.841Z,6.53
2023-05-16T16:27:10.235Z,8.33
2023-05-16T16:32:03.573Z,6.90
2023-05-16T16:36:56.907Z,6.33
2023-05-16T16:41:51.673Z,6.13
2023-05-16T16:46:45.001Z,7.10
2023-05-16T16:51:38.490Z,6.60
2023-05-16T16:56:32.058Z,8.57
2023-05-16T17:01:29.672Z,7.30
2023-05-16T17:06:23.446Z,8.03
2023-05-16T17:11:22.740Z,9.57
2023-05-16T17:16:16.885Z,7.27
2023-05-16T17:21:13.167Z,8.53
2023-05-16T17:26:06.714Z,9.33
2023-05-16T17:31:00.938Z,8.47
2023-05-16T17:35:54.304Z,8.87
2023-05-16T17:40:49.089Z,7.23
2023-05-16T17:45:42.453Z,7.43
2023-05-16T17:50:37.452Z,5.63
2023-05-16T17:55:30.951Z,5.47
2023-05-16T18:00:25.886Z,8.83
2023-05-16T18:05:19.442Z,9.73
2023-05-16T18:10:13.648Z,9.33
2023-05-16T18:15:09.153Z,5.43
2023-05-16T18:20:09.552Z,4.53
2023-05-16T18:25:03.270Z,4.77
2023-05-16T18:29:56.735Z,3.43
2023-05-16T18:34:50.320Z,3.70
2023-05-16T18:39:45.120Z,3.30
2023-05-16T18:44:38.620Z,3.10
2023-05-16T18:49:33.440Z,3.37
2023-05-16T18:54:26.777Z,4.97
2023-05-16T18:59:21.525Z,4.73
2023-05-16T19:04:14.909Z,7.20
2023-05-16T19:09:09.282Z,3.73
2023-05-16T19:14:02.627Z,3.87
2023-05-16T19:18:58.159Z,4.27
2023-05-16T19:23:51.731Z,5.00
2023-05-16T19:28:45.233Z,3.60
2023-05-16T19:33:38.644Z,6.77
2023-05-16T19:38:33.674Z,4.13
2023-05-16T19:43:27.209Z,3.97
2023-05-16T19:48:20.733Z,3.57
2023-05-16T19:53:14.208Z,6.20
2023-05-16T19:58:08.875Z,4.77
2023-05-16T20:03:02.354Z,6.53
2023-05-16T20:07:56.237Z,5.43
2023-05-16T20:12:49.553Z,4.77
2023-05-16T20:17:44.412Z,3.53
2023-05-16T20:22:41.302Z,8.23
2023-05-16T20:27:35.240Z,4.43
2023-05-16T20:32:28.913Z,3.97
2023-05-16T20:37:26.719Z,2.73
2023-05-16T20:42:20.247Z,3.83
2023-05-16T20:47:13.622Z,6.87
2023-05-16T20:52:08.085Z,5.83
2023-05-16T20:57:02.939Z,7.23
2023-05-16T21:01:57.454Z,5.50
2023-05-16T21:06:50.816Z,3.53
2023-05-16T21:11:44.178Z,6.07
2023-05-16T21:16:38.987Z,2.63
2023-05-16T21:21:32.497Z,6.17
2023-05-16T21:26:26.138Z,4.83
2023-05-16T21:31:19.548Z,4.80
2023-05-16T21:36:14.295Z,4.47
2023-05-16T21:41:07.640Z,4.90
2023-05-16T21:46:00.945Z,6.70
2023-05-16T21:50:57.165Z,11.00
2023-05-16T21:55:52.138Z,7.00
2023-05-16T22:00:45.443Z,5.23
2023-05-16T22:05:38.857Z,5.67
2023-05-16T22:10:32.223Z,3.87
2023-05-16T22:15:27.523Z,3.00
2023-05-16T22:20:21.596Z,3.47
2023-05-16T22:25:15.671Z,7.20
2023-05-16T22:30:10.404Z,4.60
2023-05-16T22:35:05.541Z,4.40
2023-05-16T22:39:58.881Z,4.07
2023-05-16T22:44:52.271Z,6.67
2023-05-16T22:49:45.669Z,3.10
2023-05-16T22:54:41.655Z,5.13
2023-05-16T22:59:35.254Z,5.97
2023-05-16T23:04:28.677Z,6.83
2023-05-16T23:09:24.412Z,3.20
2023-05-16T23:14:19.137Z,4.53
2023-05-16T23:19:12.513Z,3.27
2023-05-16T23:24:06.313Z,4.27
2023-05-16T23:28:59.645Z,7.43
2023-05-16T23:33:54.502Z,2.77
2023-05-16T23:38:47.831Z,3.73
2023-05-16T23:43:41.304Z,2.90
2023-05-16T23:48:36.302Z,2.63
2023-05-16T23:53:32.968Z,3.07
2023-05-16T23:58:26.326Z,7.03
